sensor_id;sensor_type;location;lat;lon;timestamp;P1;durP1;ratioP1;P2;durP2;ratioP2
8139;SDS011;4111;50.972;7.072;2023-04-01T00:01:05;3.17;;;1.00;;
8139;SDS011;4111;50.972;7.072;2023-04-01T00:03:32;3.53;;;1.07;;
8139;SDS011;4111;50.972;7.072;2023-04-01T00:06:00;1.93;;;1.03;;
8139;SDS011;4111;50.972;7.072;2023-04-01T00:08:27;1.73;;;0.80;;
8139;SDS011;4111;50.972;7.072;2023-04-01T00:10:53;0.80;;;0.80;;
8139;SDS011;4111;50.972;7.072;2023-04-01T00:13:21;1.83;;;0.93;;
8139;SDS011;4111;50.972;7.072;2023-04-01T00:15:48;1.27;;;0.90;;
8139;SDS011;4111;50.972;7.072;2023-04-01T00:18:15;2.63;;;1.10;;
8139;SDS011;4111;50.972;7.072;2023-04-01T00:20:45;2.40;;;1.03;;
8139;SDS011;4111;50.972;7.072;2023-04-01T00:23:13;4.33;;;1.00;;
8139;SDS011;4111;50.972;7.072;2023-04-01T00:25:41;1.03;;;0.73;;
8139;SDS011;4111;50.972;7.072;2023-04-01T00:28:07;1.13;;;0.90;;
8139;SDS011;4111;50.972;7.072;2023-04-01T00:30:35;0.80;;;0.80;;
8139;SDS011;4111;50.972;7.072;2023-04-01T00:33:02;0.87;;;0.60;;
8139;SDS011;4111;50.972;7.072;2023-04-01T00:35:29;1.53;;;0.70;;
8139;SDS011;4111;50.972;7.072;2023-04-01T00:37:56;1.33;;;1.00;;
8139;SDS011;4111;50.972;7.072;2023-04-01T00:43:00;1.70;;;0.87;;
8139;SDS011;4111;50.972;7.072;2023-04-01T00:45:29;0.60;;;0.50;;
8139;SDS011;4111;50.972;7.072;2023-04-01T00:48:10;0.83;;;0.70;;
8139;SDS011;4111;50.972;7.072;2023-04-01T00:50:41;0.77;;;0.60;;
8139;SDS011;4111;50.972;7.072;2023-04-01T00:53:12;1.53;;;1.20;;
8139;SDS011;4111;50.972;7.072;2023-04-01T00:55:41;2.70;;;0.70;;
8139;SDS011;4111;50.972;7.072;2023-04-01T00:58:13;1.13;;;1.03;;
8139;SDS011;4111;50.972;7.072;2023-04-01T01:00:43;1.67;;;0.80;;
8139;SDS011;4111;50.972;7.072;2023-04-01T01:03:12;1.93;;;1.10;;
8139;SDS011;4111;50.972;7.072;2023-04-01T01:05:52;1.20;;;0.80;;
8139;SDS011;4111;50.972;7.072;2023-04-01T01:11:27;0.70;;;0.70;;
8139;SDS011;4111;50.972;7.072;2023-04-01T01:14:19;0.60;;;0.60;;
8139;SDS011;4111;50.972;7.072;2023-04-01T01:22:52;1.60;;;0.73;;
8139;SDS011;4111;50.972;7.072;2023-04-01T01:25:39;1.17;;;0.70;;
8139;SDS011;4111;50.972;7.072;2023-04-01T01:28:37;0.57;;;0.57;;
8139;SDS011;4111;50.972;7.072;2023-04-01T01:31:36;2.53;;;0.90;;
8139;SDS011;4111;50.972;7.072;2023-04-01T01:34:24;0.63;;;0.63;;
8139;SDS011;4111;50.972;7.072;2023-04-01T01:36:59;0.67;;;0.67;;
8139;SDS011;4111;50.972;7.072;2023-04-01T01:39:30;2.20;;;0.87;;
8139;SDS011;4111;50.972;7.072;2023-04-01T01:42:01;1.70;;;0.70;;
8139;SDS011;4111;50.972;7.072;2023-04-01T01:44:30;2.00;;;0.60;;
8139;SDS011;4111;50.972;7.072;2023-04-01T01:46:58;1.30;;;0.80;;
8139;SDS011;4111;50.972;7.072;2023-04-01T01:49:27;1.97;;;0.90;;
8139;SDS011;4111;50.972;7.072;2023-04-01T01:51:56;0.80;;;0.80;;
8139;SDS011;4111;50.972;7.072;2023-04-01T01:54:23;0.77;;;0.60;;
8139;SDS011;4111;50.972;7.072;2023-04-01T01:56:50;1.13;;;0.87;;
8139;SDS011;4111;50.972;7.072;2023-04-01T01:59:22;1.00;;;0.70;;
8139;SDS011;4111;50.972;7.072;2023-04-01T02:01:51;1.30;;;0.90;;
8139;SDS011;4111;50.972;7.072;2023-04-01T02:04:20;1.70;;;0.80;;
8139;SDS011;4111;50.972;7.072;2023-04-01T02:06:59;1.90;;;1.10;;
8139;SDS011;4111;50.972;7.072;2023-04-01T02:09:30;1.83;;;1.00;;
8139;SDS011;4111;50.972;7.072;2023-04-01T02:11:57;1.23;;;0.80;;
8139;SDS011;4111;50.972;7.072;2023-04-01T02:14:36;1.00;;;0.80;;
8139;SDS011;4111;50.972;7.072;2023-04-01T02:17:09;3.27;;;1.17;;
8139;SDS011;4111;50.972;7.072;2023-04-01T02:19:59;0.87;;;0.83;;
8139;SDS011;4111;50.972;7.072;2023-04-01T02:22:33;3.13;;;0.80;;
8139;SDS011;4111;50.972;7.072;2023-04-01T02:25:07;1.03;;;0.73;;
8139;SDS011;4111;50.972;7.072;2023-04-01T02:27:35;1.93;;;0.90;;
8139;SDS011;4111;50.972;7.072;2023-04-01T02:30:02;2.47;;;1.10;;
8139;SDS011;4111;50.972;7.072;2023-04-01T02:32:29;2.20;;;0.90;;
8139;SDS011;4111;50.972;7.072;2023-04-01T02:34:59;1.17;;;1.07;;
8139;SDS011;4111;50.972;7.072;2023-04-01T02:37:29;1.00;;;0.90;;
8139;SDS011;4111;50.972;7.072;2023-04-01T02:40:01;1.47;;;0.87;;
8139;SDS011;4111;50.972;7.072;2023-04-01T02:42:29;1.20;;;0.90;;
8139;SDS011;4111;50.972;7.072;2023-04-01T02:44:56;3.90;;;0.87;;
8139;SDS011;4111;50.972;7.072;2023-04-01T02:47:22;1.20;;;0.83;;
8139;SDS011;4111;50.972;7.072;2023-04-01T02:49:49;1.17;;;1.07;;
8139;SDS011;4111;50.972;7.072;2023-04-01T02:52:15;1.87;;;1.10;;
8139;SDS011;4111;50.972;7.072;2023-04-01T02:54:41;2.00;;;1.00;;
8139;SDS011;4111;50.972;7.072;2023-04-01T02:57:08;2.27;;;0.90;;
8139;SDS011;4111;50.972;7.072;2023-04-01T02:59:34;2.33;;;0.80;;
8139;SDS011;4111;50.972;7.072;2023-04-01T03:02:01;0.63;;;0.63;;
8139;SDS011;4111;50.972;7.072;2023-04-01T03:04:27;0.73;;;0.70;;
8139;SDS011;4111;50.972;7.072;2023-04-01T03:06:53;0.60;;;0.50;;
8139;SDS011;4111;50.972;7.072;2023-04-01T03:09:21;0.60;;;0.60;;
8139;SDS011;4111;50.972;7.072;2023-04-01T03:11:47;0.60;;;0.60;;
8139;SDS011;4111;50.972;7.072;2023-04-01T03:14:14;0.50;;;0.50;;
8139;SDS011;4111;50.972;7.072;2023-04-01T03:16:40;1.33;;;0.73;;
8139;SDS011;4111;50.972;7.072;2023-04-01T03:19:07;1.50;;;0.70;;
8139;SDS011;4111;50.972;7.072;2023-04-01T03:21:33;0.60;;;0.60;;
8139;SDS011;4111;50.972;7.072;2023-04-01T03:23:59;0.70;;;0.60;;
8139;SDS011;4111;50.972;7.072;2023-04-01T03:26:26;1.20;;;0.60;;
8139;SDS011;4111;50.972;7.072;2023-04-01T03:28:55;0.60;;;0.50;;
8139;SDS011;4111;50.972;7.072;2023-04-01T03:31:21;0.50;;;0.50;;
8139;SDS011;4111;50.972;7.072;2023-04-01T03:33:49;0.50;;;0.50;;
8139;SDS011;4111;50.972;7.072;2023-04-01T03:36:15;0.67;;;0.67;;
8139;SDS011;4111;50.972;7.072;2023-04-01T03:38:42;0.70;;;0.70;;
8139;SDS011;4111;50.972;7.072;2023-04-01T03:41:13;1.47;;;0.60;;
8139;SDS011;4111;50.972;7.072;2023-04-01T03:43:40;0.73;;;0.70;;
8139;SDS011;4111;50.972;7.072;2023-04-01T03:46:07;0.60;;;0.60;;
8139;SDS011;4111;50.972;7.072;2023-04-01T03:48:34;0.60;;;0.60;;
8139;SDS011;4111;50.972;7.072;2023-04-01T03:51:01;0.70;;;0.70;;
8139;SDS011;4111;50.972;7.072;2023-04-01T03:53:27;0.60;;;0.60;;
8139;SDS011;4111;50.972;7.072;2023-04-01T03:55:54;0.83;;;0.53;;
8139;SDS011;4111;50.972;7.072;2023-04-01T03:58:20;2.83;;;0.80;;
8139;SDS011;4111;50.972;7.072;2023-04-01T04:00:47;1.40;;;0.67;;
8139;SDS011;4111;50.972;7.072;2023-04-01T04:03:13;0.90;;;0.60;;
8139;SDS011;4111;50.972;7.072;2023-04-01T04:05:47;0.47;;;0.47;;
8139;SDS011;4111;50.972;7.072;2023-04-01T04:08:14;1.27;;;0.67;;
8139;SDS011;4111;50.972;7.072;2023-04-01T04:10:41;0.73;;;0.73;;
8139;SDS011;4111;50.972;7.072;2023-04-01T04:13:07;1.30;;;0.70;;
8139;SDS011;4111;50.972;7.072;2023-04-01T04:15:33;3.13;;;0.90;;
8139;SDS011;4111;50.972;7.072;2023-04-01T04:18:00;0.60;;;0.60;;
8139;SDS011;4111;50.972;7.072;2023-04-01T04:20:26;2.00;;;0.70;;
8139;SDS011;4111;50.972;7.072;2023-04-01T04:22:53;0.87;;;0.87;;
8139;SDS011;4111;50.972;7.072;2023-04-01T04:25:19;1.43;;;0.80;;
8139;SDS011;4111;50.972;7.072;2023-04-01T04:27:46;0.60;;;0.60;;
8139;SDS011;4111;50.972;7.072;2023-04-01T04:30:12;0.60;;;0.60;;
8139;SDS011;4111;50.972;7.072;2023-04-01T04:32:39;1.80;;;0.67;;
8139;SDS011;4111;50.972;7.072;2023-04-01T04:35:07;0.70;;;0.70;;
8139;SDS011;4111;50.972;7.072;2023-04-01T04:37:34;0.73;;;0.73;;
8139;SDS011;4111;50.972;7.072;2023-04-01T04:40:00;0.53;;;0.53;;
8139;SDS011;4111;50.972;7.072;2023-04-01T04:42:27;0.50;;;0.50;;
8139;SDS011;4111;50.972;7.072;2023-04-01T04:44:53;0.70;;;0.60;;
8139;SDS011;4111;50.972;7.072;2023-04-01T04:47:20;1.27;;;0.60;;
8139;SDS011;4111;50.972;7.072;2023-04-01T04:49:46;2.00;;;0.80;;
8139;SDS011;4111;50.972;7.072;2023-04-01T04:52:13;0.77;;;0.60;;
8139;SDS011;4111;50.972;7.072;2023-04-01T04:54:39;0.50;;;0.50;;
8139;SDS011;4111;50.972;7.072;2023-04-01T04:57:06;0.90;;;0.87;;
8139;SDS011;4111;50.972;7.072;2023-04-01T04:59:32;1.63;;;0.80;;
8139;SDS011;4111;50.972;7.072;2023-04-01T05:01:58;0.60;;;0.60;;
8139;SDS011;4111;50.972;7.072;2023-04-01T05:04:25;1.20;;;0.70;;
8139;SDS011;4111;50.972;7.072;2023-04-01T05:06:52;1.33;;;0.70;;
8139;SDS011;4111;50.972;7.072;2023-04-01T05:09:18;0.63;;;0.63;;
8139;SDS011;4111;50.972;7.072;2023-04-01T05:11:45;0.67;;;0.60;;
8139;SDS011;4111;50.972;7.072;2023-04-01T05:14:12;0.67;;;0.67;;
8139;SDS011;4111;50.972;7.072;2023-04-01T05:16:39;0.50;;;0.50;;
8139;SDS011;4111;50.972;7.072;2023-04-01T05:19:06;0.97;;;0.70;;
8139;SDS011;4111;50.972;7.072;2023-04-01T05:21:32;1.37;;;0.70;;
8139;SDS011;4111;50.972;7.072;2023-04-01T05:23:59;0.93;;;0.70;;
8139;SDS011;4111;50.972;7.072;2023-04-01T05:26:25;0.83;;;0.83;;
8139;SDS011;4111;50.972;7.072;2023-04-01T05:28:51;0.60;;;0.60;;
8139;SDS011;4111;50.972;7.072;2023-04-01T05:31:18;3.30;;;0.63;;
8139;SDS011;4111;50.972;7.072;2023-04-01T05:33:44;1.90;;;0.70;;
8139;SDS011;4111;50.972;7.072;2023-04-01T05:36:12;1.23;;;0.80;;
8139;SDS011;4111;50.972;7.072;2023-04-01T05:38:40;1.73;;;0.70;;
8139;SDS011;4111;50.972;7.072;2023-04-01T05:41:08;0.70;;;0.70;;
8139;SDS011;4111;50.972;7.072;2023-04-01T05:43:36;1.10;;;1.10;;
8139;SDS011;4111;50.972;7.072;2023-04-01T05:46:03;0.80;;;0.77;;
8139;SDS011;4111;50.972;7.072;2023-04-01T05:48:29;1.47;;;0.77;;
8139;SDS011;4111;50.972;7.072;2023-04-01T05:50:56;1.37;;;0.87;;
8139;SDS011;4111;50.972;7.072;2023-04-01T05:53:22;0.60;;;0.60;;
8139;SDS011;4111;50.972;7.072;2023-04-01T05:55:48;1.47;;;1.37;;
8139;SDS011;4111;50.972;7.072;2023-04-01T05:58:15;0.97;;;0.80;;
8139;SDS011;4111;50.972;7.072;2023-04-01T06:00:41;1.77;;;0.83;;
8139;SDS011;4111;50.972;7.072;2023-04-01T06:03:08;2.77;;;0.80;;
8139;SDS011;4111;50.972;7.072;2023-04-01T06:05:41;0.97;;;0.97;;
8139;SDS011;4111;50.972;7.072;2023-04-01T06:08:11;0.90;;;0.70;;
8139;SDS011;4111;50.972;7.072;2023-04-01T06:10:47;0.70;;;0.70;;
8139;SDS011;4111;50.972;7.072;2023-04-01T06:19:13;0.93;;;0.70;;
8139;SDS011;4111;50.972;7.072;2023-04-01T06:30:24;0.90;;;0.90;;
8139;SDS011;4111;50.972;7.072;2023-04-01T06:36:06;0.90;;;0.90;;
8139;SDS011;4111;50.972;7.072;2023-04-01T06:44:45;0.80;;;0.80;;
8139;SDS011;4111;50.972;7.072;2023-04-01T06:50:01;0.80;;;0.80;;
8139;SDS011;4111;50.972;7.072;2023-04-01T06:52:38;1.07;;;0.90;;
8139;SDS011;4111;50.972;7.072;2023-04-01T06:58:02;1.73;;;0.90;;
8139;SDS011;4111;50.972;7.072;2023-04-01T07:00:32;1.27;;;0.97;;
8139;SDS011;4111;50.972;7.072;2023-04-01T07:03:09;1.10;;;1.10;;
8139;SDS011;4111;50.972;7.072;2023-04-01T07:05:43;1.00;;;1.00;;
8139;SDS011;4111;50.972;7.072;2023-04-01T07:08:16;1.30;;;0.97;;
8139;SDS011;4111;50.972;7.072;2023-04-01T07:11:02;1.13;;;1.00;;
8139;SDS011;4111;50.972;7.072;2023-04-01T07:13:41;1.07;;;1.07;;
8139;SDS011;4111;50.972;7.072;2023-04-01T07:16:23;1.90;;;0.93;;
8139;SDS011;4111;50.972;7.072;2023-04-01T07:21:46;1.33;;;1.23;;
8139;SDS011;4111;50.972;7.072;2023-04-01T07:24:21;3.13;;;1.20;;
8139;SDS011;4111;50.972;7.072;2023-04-01T07:26:55;0.80;;;0.80;;
8139;SDS011;4111;50.972;7.072;2023-04-01T07:29:23;1.40;;;1.20;;
8139;SDS011;4111;50.972;7.072;2023-04-01T07:37:50;1.47;;;1.20;;
8139;SDS011;4111;50.972;7.072;2023-04-01T07:40:32;1.57;;;1.40;;
8139;SDS011;4111;50.972;7.072;2023-04-01T07:48:33;2.03;;;1.40;;
8139;SDS011;4111;50.972;7.072;2023-04-01T07:54:19;2.10;;;1.30;;
8139;SDS011;4111;50.972;7.072;2023-04-01T07:57:10;2.03;;;1.83;;
8139;SDS011;4111;50.972;7.072;2023-04-01T08:02:40;2.00;;;1.27;;
8139;SDS011;4111;50.972;7.072;2023-04-01T08:25:02;1.30;;;1.20;;
8139;SDS011;4111;50.972;7.072;2023-04-01T08:27:34;1.20;;;1.20;;
8139;SDS011;4111;50.972;7.072;2023-04-01T08:32:45;1.80;;;1.20;;
8139;SDS011;4111;50.972;7.072;2023-04-01T08:35:19;4.27;;;1.10;;
8139;SDS011;4111;50.972;7.072;2023-04-01T08:37:46;1.60;;;1.10;;
8139;SDS011;4111;50.972;7.072;2023-04-01T08:43:24;1.00;;;0.90;;
8139;SDS011;4111;50.972;7.072;2023-04-01T08:55:02;1.03;;;1.00;;
8139;SDS011;4111;50.972;7.072;2023-04-01T08:57:45;1.70;;;1.07;;
8139;SDS011;4111;50.972;7.072;2023-04-01T09:03:14;1.70;;;1.00;;
8139;SDS011;4111;50.972;7.072;2023-04-01T09:08:31;0.80;;;0.80;;
8139;SDS011;4111;50.972;7.072;2023-04-01T09:11:04;0.80;;;0.80;;
8139;SDS011;4111;50.972;7.072;2023-04-01T09:13:54;1.00;;;0.80;;
8139;SDS011;4111;50.972;7.072;2023-04-01T09:19:37;1.00;;;0.73;;
8139;SDS011;4111;50.972;7.072;2023-04-01T09:25:30;0.70;;;0.70;;
8139;SDS011;4111;50.972;7.072;2023-04-01T10:09:10;1.10;;;1.10;;
8139;SDS011;4111;50.972;7.072;2023-04-01T10:12:17;1.17;;;1.17;;
8139;SDS011;4111;50.972;7.072;2023-04-01T10:24:15;1.80;;;1.27;;
8139;SDS011;4111;50.972;7.072;2023-04-01T10:29:45;1.40;;;1.30;;
8139;SDS011;4111;50.972;7.072;2023-04-01T10:53:03;2.00;;;1.60;;
8139;SDS011;4111;50.972;7.072;2023-04-01T10:59:07;1.40;;;1.30;;
8139;SDS011;4111;50.972;7.072;2023-04-01T11:04:59;1.70;;;1.60;;
8139;SDS011;4111;50.972;7.072;2023-04-01T11:13:36;2.47;;;1.90;;
8139;SDS011;4111;50.972;7.072;2023-04-01T11:29:47;1.60;;;1.50;;
8139;SDS011;4111;50.972;7.072;2023-04-01T11:35:21;1.80;;;1.70;;
8139;SDS011;4111;50.972;7.072;2023-04-01T11:38:17;1.43;;;1.40;;
8139;SDS011;4111;50.972;7.072;2023-04-01T11:40:51;1.37;;;1.37;;
8139;SDS011;4111;50.972;7.072;2023-04-01T11:43:41;3.03;;;1.60;;
8139;SDS011;4111;50.972;7.072;2023-04-01T11:46:17;1.30;;;1.30;;
8139;SDS011;4111;50.972;7.072;2023-04-01T11:48:55;1.60;;;1.50;;
8139;SDS011;4111;50.972;7.072;2023-04-01T11:51:42;1.37;;;1.37;;
8139;SDS011;4111;50.972;7.072;2023-04-01T11:55:02;1.47;;;1.37;;
8139;SDS011;4111;50.972;7.072;2023-04-01T11:58:10;1.10;;;1.10;;
8139;SDS011;4111;50.972;7.072;2023-04-01T12:09:40;1.60;;;1.50;;
8139;SDS011;4111;50.972;7.072;2023-04-01T12:15:20;1.53;;;1.43;;
8139;SDS011;4111;50.972;7.072;2023-04-01T12:18:17;1.20;;;1.20;;
8139;SDS011;4111;50.972;7.072;2023-04-01T12:41:02;1.60;;;1.50;;
8139;SDS011;4111;50.972;7.072;2023-04-01T13:00:47;2.13;;;1.97;;
8139;SDS011;4111;50.972;7.072;2023-04-01T13:08:46;1.30;;;1.30;;
8139;SDS011;4111;50.972;7.072;2023-04-01T13:19:41;1.27;;;1.27;;
8139;SDS011;4111;50.972;7.072;2023-04-01T13:28:00;1.50;;;1.50;;
8139;SDS011;4111;50.972;7.072;2023-04-01T13:36:19;1.70;;;1.60;;
8139;SDS011;4111;50.972;7.072;2023-04-01T13:44:33;2.20;;;1.50;;
8139;SDS011;4111;50.972;7.072;2023-04-01T13:47:10;1.50;;;1.50;;
8139;SDS011;4111;50.972;7.072;2023-04-01T13:50:05;1.70;;;1.60;;
8139;SDS011;4111;50.972;7.072;2023-04-01T13:55:39;1.57;;;1.47;;
8139;SDS011;4111;50.972;7.072;2023-04-01T13:58:23;1.77;;;1.67;;
8139;SDS011;4111;50.972;7.072;2023-04-01T14:01:03;2.03;;;1.93;;
8139;SDS011;4111;50.972;7.072;2023-04-01T14:09:09;2.07;;;1.90;;
8139;SDS011;4111;50.972;7.072;2023-04-01T14:20:30;2.37;;;2.27;;
8139;SDS011;4111;50.972;7.072;2023-04-01T14:23:26;2.47;;;2.27;;
8139;SDS011;4111;50.972;7.072;2023-04-01T14:26:20;2.20;;;2.10;;
8139;SDS011;4111;50.972;7.072;2023-04-01T14:28:59;2.23;;;2.13;;
8139;SDS011;4111;50.972;7.072;2023-04-01T14:31:43;3.17;;;2.60;;
8139;SDS011;4111;50.972;7.072;2023-04-01T14:37:21;2.20;;;2.10;;
8139;SDS011;4111;50.972;7.072;2023-04-01T14:42:53;2.63;;;2.43;;
8139;SDS011;4111;50.972;7.072;2023-04-01T14:48:17;2.57;;;2.43;;
8139;SDS011;4111;50.972;7.072;2023-04-01T14:59:10;3.00;;;2.80;;
8139;SDS011;4111;50.972;7.072;2023-04-01T15:01:45;3.00;;;2.80;;
8139;SDS011;4111;50.972;7.072;2023-04-01T15:04:37;3.23;;;3.03;;
8139;SDS011;4111;50.972;7.072;2023-04-01T15:07:21;3.30;;;3.00;;
8139;SDS011;4111;50.972;7.072;2023-04-01T15:12:59;3.73;;;3.50;;
8139;SDS011;4111;50.972;7.072;2023-04-01T15:15:45;3.53;;;3.23;;
8139;SDS011;4111;50.972;7.072;2023-04-01T15:24:23;2.97;;;2.77;;
8139;SDS011;4111;50.972;7.072;2023-04-01T15:26:54;2.90;;;2.70;;
8139;SDS011;4111;50.972;7.072;2023-04-01T15:30:02;2.80;;;2.60;;
8139;SDS011;4111;50.972;7.072;2023-04-01T15:38:05;3.27;;;2.97;;
8139;SDS011;4111;50.972;7.072;2023-04-01T15:43:14;2.73;;;2.53;;
8139;SDS011;4111;50.972;7.072;2023-04-01T15:45:57;2.60;;;2.50;;
8139;SDS011;4111;50.972;7.072;2023-04-01T15:51:16;2.73;;;2.53;;
8139;SDS011;4111;50.972;7.072;2023-04-01T15:59:43;3.07;;;2.87;;
8139;SDS011;4111;50.972;7.072;2023-04-01T16:05:33;3.07;;;2.87;;
8139;SDS011;4111;50.972;7.072;2023-04-01T16:08:16;3.73;;;3.10;;
8139;SDS011;4111;50.972;7.072;2023-04-01T16:14:02;2.97;;;2.77;;
8139;SDS011;4111;50.972;7.072;2023-04-01T16:22:18;3.47;;;3.03;;
8139;SDS011;4111;50.972;7.072;2023-04-01T16:33:55;3.07;;;2.87;;
8139;SDS011;4111;50.972;7.072;2023-04-01T16:45:00;3.00;;;2.80;;
8139;SDS011;4111;50.972;7.072;2023-04-01T16:47:40;3.40;;;3.10;;
8139;SDS011;4111;50.972;7.072;2023-04-01T16:50:27;2.80;;;2.60;;
8139;SDS011;4111;50.972;7.072;2023-04-01T16:58:18;3.00;;;2.80;;
8139;SDS011;4111;50.972;7.072;2023-04-01T17:00:50;2.97;;;2.77;;
8139;SDS011;4111;50.972;7.072;2023-04-01T17:14:54;3.00;;;2.80;;
8139;SDS011;4111;50.972;7.072;2023-04-01T17:20:14;4.00;;;3.70;;
8139;SDS011;4111;50.972;7.072;2023-04-01T17:31:30;3.77;;;3.50;;
8139;SDS011;4111;50.972;7.072;2023-04-01T17:42:47;3.17;;;2.87;;
8139;SDS011;4111;50.972;7.072;2023-04-01T17:45:37;3.40;;;2.93;;
8139;SDS011;4111;50.972;7.072;2023-04-01T17:48:24;2.77;;;2.57;;
8139;SDS011;4111;50.972;7.072;2023-04-01T17:53:56;3.53;;;3.23;;
8139;SDS011;4111;50.972;7.072;2023-04-01T17:56:40;3.50;;;3.30;;
8139;SDS011;4111;50.972;7.072;2023-04-01T17:59:18;3.10;;;2.90;;
8139;SDS011;4111;50.972;7.072;2023-04-01T18:02:03;3.10;;;2.87;;
8139;SDS011;4111;50.972;7.072;2023-04-01T18:04:50;3.03;;;2.83;;
8139;SDS011;4111;50.972;7.072;2023-04-01T18:07:57;3.40;;;3.10;;
8139;SDS011;4111;50.972;7.072;2023-04-01T18:13:29;5.83;;;3.17;;
8139;SDS011;4111;50.972;7.072;2023-04-01T18:16:18;4.07;;;3.47;;
8139;SDS011;4111;50.972;7.072;2023-04-01T18:22:15;3.80;;;3.50;;
8139;SDS011;4111;50.972;7.072;2023-04-01T18:24:54;3.70;;;3.40;;
8139;SDS011;4111;50.972;7.072;2023-04-01T18:27:32;3.83;;;3.43;;
8139;SDS011;4111;50.972;7.072;2023-04-01T18:35:54;6.23;;;5.63;;
8139;SDS011;4111;50.972;7.072;2023-04-01T18:39:03;4.63;;;4.23;;
8139;SDS011;4111;50.972;7.072;2023-04-01T18:49:46;5.30;;;4.43;;
8139;SDS011;4111;50.972;7.072;2023-04-01T18:52:20;4.40;;;4.10;;
8139;SDS011;4111;50.972;7.072;2023-04-01T18:57:26;4.50;;;4.20;;
8139;SDS011;4111;50.972;7.072;2023-04-01T19:00:24;4.90;;;4.40;;
8139;SDS011;4111;50.972;7.072;2023-04-01T19:03:07;4.90;;;4.17;;
8139;SDS011;4111;50.972;7.072;2023-04-01T19:05:45;4.80;;;4.50;;
8139;SDS011;4111;50.972;7.072;2023-04-01T19:11:15;5.07;;;4.67;;
8139;SDS011;4111;50.972;7.072;2023-04-01T19:14:00;6.10;;;5.30;;
8139;SDS011;4111;50.972;7.072;2023-04-01T19:16:43;5.40;;;5.00;;
8139;SDS011;4111;50.972;7.072;2023-04-01T19:19:21;5.23;;;4.80;;
8139;SDS011;4111;50.972;7.072;2023-04-01T19:22:09;5.00;;;4.60;;
8139;SDS011;4111;50.972;7.072;2023-04-01T19:27:48;6.20;;;4.90;;
8139;SDS011;4111;50.972;7.072;2023-04-01T19:33:19;4.43;;;4.03;;
8139;SDS011;4111;50.972;7.072;2023-04-01T19:38:24;5.53;;;5.03;;
8139;SDS011;4111;50.972;7.072;2023-04-01T19:43:54;7.10;;;6.40;;
8139;SDS011;4111;50.972;7.072;2023-04-01T19:52:49;5.97;;;5.47;;
8139;SDS011;4111;50.972;7.072;2023-04-01T19:58:33;6.33;;;5.73;;
8139;SDS011;4111;50.972;7.072;2023-04-01T20:01:03;5.00;;;4.60;;
8139;SDS011;4111;50.972;7.072;2023-04-01T20:03:34;4.87;;;4.57;;
8139;SDS011;4111;50.972;7.072;2023-04-01T20:14:30;4.17;;;3.77;;
8139;SDS011;4111;50.972;7.072;2023-04-01T20:19:42;4.07;;;3.77;;
8139;SDS011;4111;50.972;7.072;2023-04-01T20:22:29;5.93;;;4.37;;
8139;SDS011;4111;50.972;7.072;2023-04-01T20:24:59;4.97;;;4.57;;
8139;SDS011;4111;50.972;7.072;2023-04-01T20:27:32;4.30;;;3.97;;
8139;SDS011;4111;50.972;7.072;2023-04-01T20:32:35;5.60;;;5.10;;
8139;SDS011;4111;50.972;7.072;2023-04-01T20:35:12;5.50;;;5.00;;
8139;SDS011;4111;50.972;7.072;2023-04-01T20:41:05;5.37;;;4.90;;
8139;SDS011;4111;50.972;7.072;2023-04-01T20:43:49;6.10;;;5.53;;
8139;SDS011;4111;50.972;7.072;2023-04-01T20:46:46;6.13;;;5.60;;
8139;SDS011;4111;50.972;7.072;2023-04-01T20:49:29;5.90;;;5.40;;
8139;SDS011;4111;50.972;7.072;2023-04-01T20:52:11;6.13;;;5.63;;
8139;SDS011;4111;50.972;7.072;2023-04-01T20:58:05;5.70;;;5.20;;
8139;SDS011;4111;50.972;7.072;2023-04-01T21:00:36;6.20;;;5.67;;
8139;SDS011;4111;50.972;7.072;2023-04-01T21:03:12;6.43;;;5.83;;
8139;SDS011;4111;50.972;7.072;2023-04-01T21:06:02;5.90;;;5.40;;
8139;SDS011;4111;50.972;7.072;2023-04-01T21:08:44;6.27;;;5.77;;
8139;SDS011;4111;50.972;7.072;2023-04-01T21:11:29;6.40;;;5.83;;
8139;SDS011;4111;50.972;7.072;2023-04-01T21:16:51;5.23;;;4.83;;
8139;SDS011;4111;50.972;7.072;2023-04-01T21:22:37;5.73;;;5.10;;
8139;SDS011;4111;50.972;7.072;2023-04-01T21:31:04;5.17;;;4.67;;
8139;SDS011;4111;50.972;7.072;2023-04-01T21:39:42;5.70;;;5.20;;
8139;SDS011;4111;50.972;7.072;2023-04-01T21:45:18;7.27;;;5.73;;
8139;SDS011;4111;50.972;7.072;2023-04-01T22:05:10;5.60;;;5.20;;
8139;SDS011;4111;50.972;7.072;2023-04-01T22:07:41;4.93;;;4.53;;
8139;SDS011;4111;50.972;7.072;2023-04-01T22:12:50;4.93;;;4.53;;
8139;SDS011;4111;50.972;7.072;2023-04-01T22:18:25;4.73;;;4.13;;
8139;SDS011;4111;50.972;7.072;2023-04-01T22:26:33;4.10;;;3.80;;
8139;SDS011;4111;50.972;7.072;2023-04-01T22:37:14;4.70;;;4.30;;
8139;SDS011;4111;50.972;7.072;2023-04-01T22:42:43;5.23;;;4.77;;
8139;SDS011;4111;50.972;7.072;2023-04-01T22:50:14;5.03;;;4.63;;
8139;SDS011;4111;50.972;7.072;2023-04-01T22:52:46;5.60;;;5.10;;
8139;SDS011;4111;50.972;7.072;2023-04-01T22:55:27;7.47;;;5.20;;
8139;SDS011;4111;50.972;7.072;2023-04-01T22:58:00;5.73;;;5.13;;
8139;SDS011;4111;50.972;7.072;2023-04-01T23:06:01;6.77;;;6.17;;
8139;SDS011;4111;50.972;7.072;2023-04-01T23:22:16;8.37;;;6.83;;
8139;SDS011;4111;50.972;7.072;2023-04-01T23:24:55;7.17;;;6.43;;
8139;SDS011;4111;50.972;7.072;2023-04-01T23:27:32;6.73;;;6.10;;
8139;SDS011;4111;50.972;7.072;2023-04-01T23:30:45;8.13;;;6.60;;
8139;SDS011;4111;50.972;7.072;2023-04-01T23:38:39;8.57;;;7.30;;
8139;SDS011;4111;50.972;7.072;2023-04-01T23:41:17;7.40;;;6.70;;
8139;SDS011;4111;50.972;7.072;2023-04-01T23:43:50;8.27;;;7.47;;
8139;SDS011;4111;50.972;7.072;2023-04-01T23:46:31;7.67;;;6.87;;
8139;SDS011;4111;50.972;7.072;2023-04-01T23:49:01;8.43;;;7.50;;
8139;SDS011;4111;50.972;7.072;2023-04-01T23:51:36;12.10;;;8.13;;
8139;SDS011;4111;50.972;7.072;2023-04-01T23:54:23;9.03;;;8.10;;
8139;SDS011;4111;50.972;7.072;2023-04-01T23:56:57;9.63;;;7.63;;
8139;SDS011;4111;50.972;7.072;2023-04-01T23:59:29;10.40;;;8.63;;
